Sargent, Georgia
Current Conditions -  °F | °C
As of 9:15 AM on Monday 22 Dec 2014 (Local Time) from KCCO Reporting Station
Haze Haze  
Wind Chill: 44°   Ceiling: 200
Heat Index: 47°   Visibility: 1mi
Dew Point: 47°   Wind: 5mph
Humidity: 100%   Direction: 110°ESE
Pressure: 30.01"   Gusts: NA
Location:  33.43°N, 84.87°W
Report Text: KCCO 221415Z AUTO 11004KT 1SM BR OVC002 08/08 A3001 RMK AO2 T00810081
Loading
Personal Weather Stations






























Interactive Weather Map New forecast layout! Learn more

10-Day Weather Forecast

Advertisements
Track Severe Weather on mobile